»·PEaware :: N333ZS KSBA-KSBP

N333ZS :: KSBA-KSBP

FLIGHT INFORMATION

Flight Status: Arrived
Operator: Privately registered:
United States
More flights under this callsign
Pilot: Judd H. (29974)
Aircraft: CESSNA 182 SKYLANE
(C182)
More flights by this aircraft type
Origin: KSBA Santa Barbara Mun
United States
Destination: KSBP San Luis Co Regl
United States
More flights between these airports :: More routes between these airports
Route: +GVO V27 MQO
File this flight plan on PilotEdge
Remarks:
Altitude:
(Current/Filed)
10,000ft
Speed:
(Current/Filed)
120kts
Departed: 11-Oct-20 07:16 PM
Arrived: 11-Oct-20 07:57 PM
Distance/Time
Traveled:
63nm/0:41
Distance/Time
To Go:
Arrived

Flight Plot

Page will automatically refresh every two minutes.


Map Options




Map Legend


Flown Route
Filed Route
Departure Airport
Arrival Airport
Navaid (VOR, NDB)
Fix

Horizontal Profiles

Position Reports

Time Latitude Longitude Heading Altitude Ground
Speed
11-Oct-20 18:59 34.423508 -119.835828 0 13ft 0kts
11-Oct-20 19:01 34.423508 -119.835828 0 13ft 0kts
11-Oct-20 19:01 34.423508 -119.835828 0 13ft 0kts
11-Oct-20 19:02 34.423508 -119.835828 0 13ft 0kts
11-Oct-20 19:03 34.423508 -119.835828 0 13ft 0kts
11-Oct-20 19:04 34.423502 -119.835826 164 13ft 0kts
11-Oct-20 19:05 34.423501 -119.835825 164 13ft 0kts
11-Oct-20 19:06 34.423500 -119.835825 164 13ft 0kts
11-Oct-20 19:07 34.423499 -119.835825 164 13ft 0kts
11-Oct-20 19:08 34.423498 -119.835824 164 13ft 0kts
11-Oct-20 19:09 34.423496 -119.835824 164 13ft 0kts
11-Oct-20 19:10 34.423341 -119.835778 168 13ft 3kts
11-Oct-20 19:11 34.423492 -119.837186 332 13ft 22kts
11-Oct-20 19:12 34.426793 -119.834953 87 13ft 28kts
11-Oct-20 19:13 34.426981 -119.834246 325 13ft 0kts
11-Oct-20 19:14 34.427050 -119.834308 320 13ft 0kts
11-Oct-20 19:15 34.427748 -119.840902 264 28ft 84kts
11-Oct-20 19:16 34.426165 -119.876010 265 751ft 107kts
11-Oct-20 19:17 34.424373 -119.912753 267 1277ft 110kts
11-Oct-20 19:18 34.422102 -119.949849 264 1838ft 107kts
11-Oct-20 19:19 34.418340 -119.982859 260 2561ft 99kts
11-Oct-20 19:20 34.412857 -120.014776 258 3311ft 97kts
11-Oct-20 19:21 34.409056 -120.046531 264 4171ft 95kts
11-Oct-20 19:22 34.404125 -120.078141 269 4987ft 96kts
11-Oct-20 19:23 34.399001 -120.109856 266 5742ft 99kts
11-Oct-20 19:24 34.396155 -120.142832 267 6454ft 101kts
11-Oct-20 19:25 34.391067 -120.175850 264 7161ft 101kts
11-Oct-20 19:26 34.385829 -120.209975 269 7773ft 102kts
11-Oct-20 19:27 34.386149 -120.243748 327 8280ft 94kts
11-Oct-20 19:28 34.415870 -120.253412 352 8017ft 120kts
11-Oct-20 19:29 34.447083 -120.263821 346 8035ft 120kts
11-Oct-20 19:30 34.479685 -120.275770 345 8063ft 125kts
11-Oct-20 19:31 34.512854 -120.289172 346 8000ft 129kts
11-Oct-20 19:32 34.547490 -120.297903 355 7962ft 122kts
11-Oct-20 19:33 34.580938 -120.303062 350 8002ft 122kts
11-Oct-20 19:34 34.613554 -120.315160 345 8023ft 123kts
11-Oct-20 19:35 34.646280 -120.328056 345 8024ft 123kts
11-Oct-20 19:36 34.679363 -120.339895 351 8025ft 123kts
11-Oct-20 19:37 34.712769 -120.348654 351 8034ft 122kts
11-Oct-20 19:38 34.746191 -120.357472 351 8037ft 123kts
11-Oct-20 19:39 34.779681 -120.366374 351 8040ft 123kts
11-Oct-20 19:40 34.813128 -120.375205 350 8045ft 123kts
11-Oct-20 19:41 34.846047 -120.387139 343 8050ft 124kts
11-Oct-20 19:42 34.874574 -120.412189 326 8057ft 127kts
11-Oct-20 19:43 34.901954 -120.439736 325 8058ft 128kts
11-Oct-20 19:44 34.931512 -120.461640 335 7739ft 121kts
11-Oct-20 19:45 34.961537 -120.481911 336 7063ft 120kts
11-Oct-20 19:46 34.989650 -120.497296 343 6318ft 105kts
11-Oct-20 19:47 35.016714 -120.510563 340 5551ft 106kts
11-Oct-20 19:48 35.043758 -120.526191 337 4763ft 108kts
11-Oct-20 19:49 35.071067 -120.541290 337 4080ft 99kts
11-Oct-20 19:50 35.096280 -120.557639 331 4071ft 116kts
11-Oct-20 19:51 35.125228 -120.577494 331 4052ft 115kts
11-Oct-20 19:52 35.151459 -120.595434 331 4051ft 91kts
11-Oct-20 19:53 35.177297 -120.608307 341 4066ft 108kts
11-Oct-20 19:54 35.206713 -120.604079 5 1868ft 117kts
11-Oct-20 19:55 35.227802 -120.624343 301 477ft 95kts
11-Oct-20 19:56 35.238412 -120.642810 300 215ft 32kts
11-Oct-20 19:57 35.239777 -120.644137 24 215ft 0kts
11-Oct-20 19:58 35.239212 -120.642225 23 215ft 5kts
11-Oct-20 19:59 35.239324 -120.642130 33 215ft 0kts

Navigation Log

Ident Type
Flight plan parsing failed, navigation log unavailable